<?xml version="1.0" encoding="UTF-8" standalone="no" ?>
<gpx xmlns="http://www.topografix.com/GPX/1/1" xmlns:xsi="http://www.w3.org/2001/XMLSchema-instance" xsi:schemaLocation="http://www.topografix.com/GPX/1/1 http://www.topografix.com/GPX/1/1/gpx.xsd" version="1.1" creator="VisuGPX - https://www.visugpx.com">
  <metadata>
    <name>Marche de Rosée - 2024 - 4km</name>
  </metadata>
  <trk>
    <name><![CDATA[Enregistrement du 8/09/24]]></name>
    <extensions>
      <line xmlns="http://www.topografix.com/GPX/gpx_style/0/2">
        <color>0000FF</color>
        <width>4</width>
      </line>
    </extensions>
    <trkseg>
      <trkpt lat="50.23252" lon="4.69305">
        <ele>283.3</ele>
        <time>2024-09-08T07:48:04Z</time>
      </trkpt>
      <trkpt lat="50.2325" lon="4.6928">
        <ele>277</ele>
        <time>2024-09-08T07:48:16Z</time>
      </trkpt>
      <trkpt lat="50.23219" lon="4.6916">
        <ele>281.2</ele>
        <time>2024-09-08T07:50:25Z</time>
      </trkpt>
      <trkpt lat="50.23211" lon="4.69062">
        <ele>279</ele>
        <time>2024-09-08T07:50:41Z</time>
      </trkpt>
      <trkpt lat="50.23202" lon="4.69018">
        <ele>280</ele>
        <time>2024-09-08T07:50:51Z</time>
      </trkpt>
      <trkpt lat="50.23198" lon="4.68992">
        <ele>282</ele>
        <time>2024-09-08T07:50:58Z</time>
      </trkpt>
      <trkpt lat="50.23194" lon="4.68974">
        <ele>287</ele>
        <time>2024-09-08T07:51:06Z</time>
      </trkpt>
      <trkpt lat="50.23187" lon="4.68963">
        <ele>289</ele>
        <time>2024-09-08T07:51:13Z</time>
      </trkpt>
      <trkpt lat="50.23176" lon="4.68945">
        <ele>290</ele>
        <time>2024-09-08T07:51:23Z</time>
      </trkpt>
      <trkpt lat="50.23171" lon="4.68941">
        <ele>290</ele>
        <time>2024-09-08T07:51:30Z</time>
      </trkpt>
      <trkpt lat="50.23158" lon="4.68932">
        <ele>290</ele>
        <time>2024-09-08T07:51:39Z</time>
      </trkpt>
      <trkpt lat="50.23119" lon="4.68892">
        <ele>293.8</ele>
      </trkpt>
      <trkpt lat="50.2305" lon="4.68885">
        <ele>298.3</ele>
        <time>2024-09-08T07:54:53Z</time>
      </trkpt>
      <trkpt lat="50.2298" lon="4.68873">
        <ele>292</ele>
        <time>2024-09-08T07:55:05Z</time>
      </trkpt>
      <trkpt lat="50.22945" lon="4.68863">
        <ele>292</ele>
        <time>2024-09-08T07:55:12Z</time>
      </trkpt>
      <trkpt lat="50.22925" lon="4.68858">
        <ele>292</ele>
        <time>2024-09-08T07:55:20Z</time>
      </trkpt>
      <trkpt lat="50.22911" lon="4.68856">
        <ele>293</ele>
        <time>2024-09-08T07:55:28Z</time>
      </trkpt>
      <trkpt lat="50.229" lon="4.68855">
        <ele>294</ele>
        <time>2024-09-08T07:55:36Z</time>
      </trkpt>
      <trkpt lat="50.2289" lon="4.68855">
        <ele>294</ele>
        <time>2024-09-08T07:55:43Z</time>
      </trkpt>
      <trkpt lat="50.22874" lon="4.68858">
        <ele>295</ele>
        <time>2024-09-08T07:55:52Z</time>
      </trkpt>
      <trkpt lat="50.22783" lon="4.68878">
        <ele>299.7</ele>
      </trkpt>
      <trkpt lat="50.22671" lon="4.68912">
        <ele>301.1</ele>
        <time>2024-09-08T08:04:34Z</time>
      </trkpt>
      <trkpt lat="50.22618" lon="4.68912">
        <ele>299.2</ele>
      </trkpt>
      <trkpt lat="50.22503" lon="4.68957">
        <ele>295.6</ele>
      </trkpt>
      <trkpt lat="50.22501" lon="4.68953">
        <ele>295.4</ele>
        <time>2024-09-08T08:04:43Z</time>
      </trkpt>
      <trkpt lat="50.22491" lon="4.68977">
        <ele>295.4</ele>
      </trkpt>
      <trkpt lat="50.22458" lon="4.69007">
        <ele>295</ele>
      </trkpt>
      <trkpt lat="50.22435" lon="4.68998">
        <ele>295.3</ele>
        <time>2024-09-08T08:04:52Z</time>
      </trkpt>
      <trkpt lat="50.22385" lon="4.68853">
        <ele>294.3</ele>
      </trkpt>
      <trkpt lat="50.22371" lon="4.6878">
        <ele>294.3</ele>
        <time>2024-09-08T08:05:00Z</time>
      </trkpt>
      <trkpt lat="50.22362" lon="4.68748">
        <ele>294</ele>
        <time>2024-09-08T08:05:08Z</time>
      </trkpt>
      <trkpt lat="50.2236" lon="4.68721">
        <ele>293</ele>
        <time>2024-09-08T08:05:17Z</time>
      </trkpt>
      <trkpt lat="50.22355" lon="4.68707">
        <ele>293</ele>
        <time>2024-09-08T08:05:26Z</time>
      </trkpt>
      <trkpt lat="50.22349" lon="4.68685">
        <ele>293</ele>
        <time>2024-09-08T08:05:36Z</time>
      </trkpt>
      <trkpt lat="50.22346" lon="4.68674">
        <ele>292</ele>
        <time>2024-09-08T08:05:57Z</time>
      </trkpt>
      <trkpt lat="50.2234" lon="4.68655">
        <ele>293</ele>
        <time>2024-09-08T08:06:03Z</time>
      </trkpt>
      <trkpt lat="50.22335" lon="4.6864">
        <ele>294</ele>
        <time>2024-09-08T08:06:11Z</time>
      </trkpt>
      <trkpt lat="50.2233" lon="4.68626">
        <ele>293</ele>
        <time>2024-09-08T08:06:20Z</time>
      </trkpt>
      <trkpt lat="50.22325" lon="4.68614">
        <ele>293</ele>
        <time>2024-09-08T08:06:28Z</time>
      </trkpt>
      <trkpt lat="50.22316" lon="4.68595">
        <ele>292</ele>
        <time>2024-09-08T08:06:37Z</time>
      </trkpt>
      <trkpt lat="50.22245" lon="4.68453">
        <ele>296.8</ele>
        <time>2024-09-08T08:09:48Z</time>
      </trkpt>
      <trkpt lat="50.22237" lon="4.68382">
        <ele>296.5</ele>
        <time>2024-09-08T08:09:54Z</time>
      </trkpt>
      <trkpt lat="50.22238" lon="4.68313">
        <ele>294</ele>
        <time>2024-09-08T08:10:06Z</time>
      </trkpt>
      <trkpt lat="50.22231" lon="4.68284">
        <ele>296.5</ele>
        <time>2024-09-08T08:10:26Z</time>
      </trkpt>
      <trkpt lat="50.22017" lon="4.68145">
        <ele>302.5</ele>
      </trkpt>
      <trkpt lat="50.22067" lon="4.68014">
        <ele>326</ele>
        <time>2024-09-08T08:17:18Z</time>
      </trkpt>
      <trkpt lat="50.22069" lon="4.68007">
        <ele>315</ele>
        <time>2024-09-08T08:17:30Z</time>
      </trkpt>
      <trkpt lat="50.22073" lon="4.67997">
        <ele>307</ele>
        <time>2024-09-08T08:17:38Z</time>
      </trkpt>
      <trkpt lat="50.22079" lon="4.67986">
        <ele>304</ele>
        <time>2024-09-08T08:17:46Z</time>
      </trkpt>
      <trkpt lat="50.2209" lon="4.67968">
        <ele>301</ele>
        <time>2024-09-08T08:17:55Z</time>
      </trkpt>
      <trkpt lat="50.2217" lon="4.67872">
        <ele>305</ele>
        <time>2024-09-08T08:20:25Z</time>
      </trkpt>
      <trkpt lat="50.22147" lon="4.67789">
        <ele>303</ele>
        <time>2024-09-08T08:20:38Z</time>
      </trkpt>
      <trkpt lat="50.22147" lon="4.67777">
        <ele>303</ele>
        <time>2024-09-08T08:21:09Z</time>
      </trkpt>
      <trkpt lat="50.22139" lon="4.67756">
        <ele>304</ele>
        <time>2024-09-08T08:21:15Z</time>
      </trkpt>
      <trkpt lat="50.2213" lon="4.67727">
        <ele>305</ele>
        <time>2024-09-08T08:21:28Z</time>
      </trkpt>
      <trkpt lat="50.22119" lon="4.67695">
        <ele>307</ele>
      </trkpt>
      <trkpt lat="50.2212" lon="4.67679">
        <ele>307</ele>
        <time>2024-09-08T08:22:39Z</time>
      </trkpt>
      <trkpt lat="50.22118" lon="4.67663">
        <ele>307.2</ele>
      </trkpt>
      <trkpt lat="50.22128" lon="4.676">
        <ele>308</ele>
      </trkpt>
      <trkpt lat="50.22135" lon="4.67611">
        <ele>308</ele>
        <time>2024-09-08T08:22:44Z</time>
      </trkpt>
      <trkpt lat="50.2214" lon="4.67575">
        <ele>308</ele>
        <time>2024-09-08T08:22:52Z</time>
      </trkpt>
      <trkpt lat="50.22302" lon="4.67464">
        <ele>302.4</ele>
        <time>2024-09-08T08:28:10Z</time>
      </trkpt>
      <trkpt lat="50.2243" lon="4.67385">
        <ele>301.9</ele>
        <time>2024-09-08T08:28:15Z</time>
      </trkpt>
      <trkpt lat="50.22701" lon="4.67761">
        <ele>324</ele>
        <time>2024-09-08T08:33:28Z</time>
      </trkpt>
      <trkpt lat="50.2271" lon="4.67757">
        <ele>294</ele>
        <time>2024-09-08T08:33:43Z</time>
      </trkpt>
      <trkpt lat="50.22831" lon="4.67833">
        <ele>292</ele>
        <time>2024-09-08T08:37:41Z</time>
      </trkpt>
      <trkpt lat="50.2291" lon="4.67898">
        <ele>291</ele>
        <time>2024-09-08T08:37:46Z</time>
      </trkpt>
      <trkpt lat="50.22946" lon="4.67931">
        <ele>288</ele>
        <time>2024-09-08T08:37:56Z</time>
      </trkpt>
      <trkpt lat="50.22975" lon="4.67962">
        <ele>287</ele>
        <time>2024-09-08T08:38:06Z</time>
      </trkpt>
      <trkpt lat="50.2298" lon="4.67962">
        <ele>287</ele>
        <time>2024-09-08T08:38:12Z</time>
      </trkpt>
      <trkpt lat="50.23041" lon="4.67971">
        <ele>284</ele>
        <time>2024-09-08T08:39:47Z</time>
      </trkpt>
      <trkpt lat="50.23065" lon="4.67996">
        <ele>273.6</ele>
      </trkpt>
      <trkpt lat="50.23071" lon="4.68008">
        <ele>273.9</ele>
        <time>2024-09-08T08:39:51Z</time>
      </trkpt>
      <trkpt lat="50.23081" lon="4.68037">
        <ele>275</ele>
        <time>2024-09-08T08:40:03Z</time>
      </trkpt>
      <trkpt lat="50.23162" lon="4.6826">
        <ele>286</ele>
        <time>2024-09-08T08:47:41Z</time>
      </trkpt>
      <trkpt lat="50.23207" lon="4.68418">
        <ele>283.6</ele>
      </trkpt>
      <trkpt lat="50.2321" lon="4.68467">
        <ele>283.8</ele>
        <time>2024-09-08T08:47:46Z</time>
      </trkpt>
      <trkpt lat="50.23208" lon="4.68683">
        <ele>286.5</ele>
      </trkpt>
      <trkpt lat="50.23239" lon="4.68697">
        <ele>284.8</ele>
      </trkpt>
      <trkpt lat="50.23302" lon="4.68677">
        <ele>279.4</ele>
      </trkpt>
      <trkpt lat="50.23366" lon="4.68818">
        <ele>274.4</ele>
      </trkpt>
      <trkpt lat="50.23312" lon="4.68967">
        <ele>281</ele>
        <time>2024-09-08T08:55:36Z</time>
      </trkpt>
      <trkpt lat="50.23308" lon="4.68971">
        <ele>280</ele>
        <time>2024-09-08T08:56:09Z</time>
      </trkpt>
      <trkpt lat="50.23299" lon="4.68988">
        <ele>279</ele>
        <time>2024-09-08T08:56:17Z</time>
      </trkpt>
      <trkpt lat="50.23293" lon="4.69006">
        <ele>279</ele>
        <time>2024-09-08T08:57:08Z</time>
      </trkpt>
      <trkpt lat="50.23277" lon="4.6905">
        <ele>281</ele>
        <time>2024-09-08T08:57:13Z</time>
      </trkpt>
      <trkpt lat="50.23267" lon="4.69076">
        <ele>285</ele>
        <time>2024-09-08T08:57:20Z</time>
      </trkpt>
      <trkpt lat="50.23255" lon="4.69103">
        <ele>283</ele>
        <time>2024-09-08T08:57:29Z</time>
      </trkpt>
      <trkpt lat="50.23225" lon="4.69147">
        <ele>281.6</ele>
      </trkpt>
      <trkpt lat="50.23246" lon="4.6924">
        <ele>281</ele>
      </trkpt>
      <trkpt lat="50.23252" lon="4.6926">
        <ele>281.7</ele>
      </trkpt>
      <trkpt lat="50.23257" lon="4.69283">
        <ele>283.2</ele>
        <time>2024-09-08T09:19:50Z</time>
      </trkpt>
      <trkpt lat="50.23256" lon="4.69323">
        <ele>260</ele>
        <time>2024-09-08T09:20:00Z</time>
      </trkpt>
      <trkpt lat="50.23258" lon="4.69336">
        <ele>285.2</ele>
      </trkpt>
    </trkseg>
  </trk>
</gpx>